Time;durP1;ratioP1;P1;durP2;ratioP2;P2;SDS_P1;SDS_P2;PMS_P1;PMS_P2;Temp;Humidity;BMP_temperature;BMP_pressure;BME280_temperature;BME280_humidity;BME280_pressure;Samples;Min_cycle;Max_cycle;Signal;HPM_P1;HPM_P2
2023/11/16 00:01:52;;;;;;;7.47;1.50;;;7.30;99.90;;;;;;5031325;28;20287;-78
2023/11/16 00:04:17;;;;;;;12.73;2.43;;;7.30;99.90;;;;;;5030452;28;20176;-79
2023/11/16 00:06:43;;;;;;;12.50;2.20;;;7.30;99.90;;;;;;5031345;28;20183;-78
2023/11/16 00:09:09;;;;;;;10.83;2.03;;;7.30;99.90;;;;;;5031534;28;20555;-79
2023/11/16 00:11:40;;;;;;;12.80;1.90;;;7.30;99.90;;;;;;5031354;28;20600;-78
2023/11/16 00:14:06;;;;;;;11.87;2.10;;;7.30;99.90;;;;;;5037560;28;20187;-80
2023/11/16 00:16:31;;;;;;;7.93;2.13;;;7.30;99.90;;;;;;5034284;28;20183;-78
2023/11/16 00:18:57;;;;;;;11.27;2.37;;;7.30;99.90;;;;;;5034659;28;20180;-79
2023/11/16 00:21:23;;;;;;;7.07;1.87;;;7.30;99.90;;;;;;5034759;28;20662;-79
2023/11/16 00:23:49;;;;;;;9.90;2.00;;;7.30;99.90;;;;;;5049049;28;20290;-80
2023/11/16 00:26:14;;;;;;;10.60;2.07;;;7.30;99.90;;;;;;5035479;28;20188;-79
2023/11/16 00:28:41;;;;;;;9.40;2.27;;;7.30;99.90;;;;;;5023340;28;20179;-79
2023/11/16 00:31:08;;;;;;;9.10;1.67;;;7.30;99.90;;;;;;5020937;28;20208;-79
2023/11/16 00:33:34;;;;;;;9.60;2.03;;;7.30;99.90;;;;;;5041398;28;20263;-79
2023/11/16 00:36:06;;;;;;;13.83;2.80;;;7.30;99.90;;;;;;5034589;28;20172;-79
2023/11/16 00:38:35;;;;;;;9.43;1.90;;;7.30;99.90;;;;;;5042082;28;20640;-81
2023/11/16 00:41:01;;;;;;;8.30;1.90;;;7.30;99.90;;;;;;5017534;28;20212;-80
2023/11/16 00:43:27;;;;;;;11.90;2.10;;;7.30;99.90;;;;;;5042489;28;20233;-81
2023/11/16 00:45:53;;;;;;;11.83;2.20;;;7.30;99.90;;;;;;5034143;28;20184;-79
2023/11/16 00:48:19;;;;;;;14.20;2.10;;;7.30;99.90;;;;;;5054062;28;20187;-78
2023/11/16 00:50:44;;;;;;;14.93;2.43;;;7.30;99.90;;;;;;5021763;28;20233;-80
2023/11/16 00:53:10;;;;;;;12.37;2.37;;;7.20;99.90;;;;;;5016701;28;20223;-79
2023/11/16 00:55:36;;;;;;;10.33;2.17;;;7.20;99.90;;;;;;5039606;28;20186;-78
2023/11/16 00:58:02;;;;;;;22.20;2.53;;;7.20;99.90;;;;;;5046098;28;20180;-78
2023/11/16 01:00:31;;;;;;;8.03;1.97;;;7.10;99.90;;;;;;5050215;28;20180;-79
2023/11/16 01:02:58;;;;;;;17.47;2.27;;;7.10;99.90;;;;;;5042578;28;20279;-79
2023/11/16 01:05:24;;;;;;;6.23;1.83;;;7.20;99.90;;;;;;5046537;28;20216;-78
2023/11/16 01:07:50;;;;;;;10.43;1.90;;;7.20;99.90;;;;;;5054208;28;20198;-78
2023/11/16 01:10:23;;;;;;;14.77;2.90;;;7.20;99.90;;;;;;5050257;28;20202;-78
2023/11/16 01:12:51;;;;;;;10.73;2.10;;;7.20;99.90;;;;;;5041736;28;20218;-80
2023/11/16 01:15:18;;;;;;;14.87;2.20;;;7.20;99.90;;;;;;5024833;28;20826;-80
2023/11/16 01:17:45;;;;;;;5.03;1.83;;;7.10;99.90;;;;;;5034171;28;20234;-79
2023/11/16 01:20:18;;;;;;;8.73;1.70;;;7.10;99.90;;;;;;5040721;28;20207;-80
2023/11/16 01:22:50;;;;;;;10.83;2.23;;;7.00;99.90;;;;;;5038930;28;20176;-80
2023/11/16 01:25:17;;;;;;;9.57;1.83;;;6.90;99.90;;;;;;5042183;28;20681;-78
2023/11/16 01:27:50;;;;;;;10.43;1.77;;;6.80;99.90;;;;;;5038940;28;20183;-79
2023/11/16 01:30:16;;;;;;;14.03;2.60;;;6.80;99.90;;;;;;5044930;28;20210;-80
2023/11/16 01:32:42;;;;;;;16.13;1.93;;;6.70;99.90;;;;;;5027585;28;20190;-79
2023/11/16 01:35:08;;;;;;;8.80;1.50;;;6.60;99.90;;;;;;5017330;28;20175;-80
2023/11/16 01:37:34;;;;;;;11.27;2.27;;;6.60;99.90;;;;;;5038593;28;20179;-79
2023/11/16 01:40:00;;;;;;;12.07;2.17;;;6.50;99.90;;;;;;5045322;28;20812;-79
2023/11/16 01:42:26;;;;;;;8.37;1.67;;;6.50;99.90;;;;;;5045026;28;20606;-79
2023/11/16 01:44:51;;;;;;;12.70;1.80;;;6.50;99.90;;;;;;5037325;28;20184;-80
2023/11/16 01:47:17;;;;;;;9.70;2.00;;;6.50;99.90;;;;;;5035760;28;20646;-78
2023/11/16 01:49:43;;;;;;;5.07;1.67;;;6.50;99.90;;;;;;5029330;28;20180;-78
2023/11/16 01:52:10;;;;;;;13.63;2.00;;;6.50;99.90;;;;;;5034621;28;20713;-78
2023/11/16 01:54:36;;;;;;;6.70;1.63;;;6.50;99.90;;;;;;5044171;28;20237;-80
2023/11/16 01:57:04;;;;;;;7.87;1.77;;;6.50;99.90;;;;;;5044134;28;20279;-78
2023/11/16 01:59:31;;;;;;;8.03;1.83;;;6.40;99.90;;;;;;5036382;28;20513;-78
2023/11/16 02:01:57;;;;;;;5.80;2.07;;;6.30;99.90;;;;;;5044553;28;20307;-78
2023/11/16 02:04:24;;;;;;;10.03;1.90;;;6.20;99.90;;;;;;5043986;28;20179;-79
2023/11/16 02:06:49;;;;;;;12.20;2.00;;;6.20;99.90;;;;;;5045893;28;20188;-78
2023/11/16 02:09:15;;;;;;;6.40;1.77;;;6.20;99.90;;;;;;5043419;28;20407;-80
2023/11/16 02:11:41;;;;;;;21.13;2.13;;;6.20;99.90;;;;;;5056949;28;20230;-80
2023/11/16 02:14:07;;;;;;;13.17;2.27;;;6.20;99.90;;;;;;5032819;28;20553;-79
2023/11/16 02:16:32;;;;;;;13.37;2.30;;;6.20;99.90;;;;;;5023223;28;20218;-79
2023/11/16 02:19:11;;;;;;;10.73;1.70;;;6.20;99.90;;;;;;5040955;28;20721;-78
2023/11/16 02:21:40;;;;;;;8.03;2.00;;;6.20;99.90;;;;;;5041075;28;20690;-80
2023/11/16 02:24:08;;;;;;;7.27;1.87;;;6.20;99.90;;;;;;5040099;28;20210;-80
2023/11/16 02:26:33;;;;;;;3.47;1.53;;;6.30;99.90;;;;;;5052496;28;20668;-79
2023/11/16 02:28:59;;;;;;;9.23;1.93;;;6.30;99.90;;;;;;5035716;28;20195;-78
2023/11/16 02:31:25;;;;;;;5.40;1.80;;;6.30;99.90;;;;;;5039397;28;20215;-78
2023/11/16 02:33:50;;;;;;;9.43;1.93;;;6.10;99.90;;;;;;5029811;28;20179;-80
2023/11/16 02:36:16;;;;;;;5.00;1.80;;;6.00;99.90;;;;;;5031875;28;20183;-81
2023/11/16 02:38:42;;;;;;;19.30;2.27;;;6.10;99.90;;;;;;5040366;28;20175;-79
2023/11/16 02:41:09;;;;;;;11.60;1.90;;;6.10;99.90;;;;;;5032192;28;20202;-78
2023/11/16 02:43:35;;;;;;;14.70;2.67;;;6.00;99.90;;;;;;5043946;28;20254;-80
2023/11/16 02:46:03;;;;;;;13.70;2.40;;;6.10;99.90;;;;;;5025572;28;20199;-78
2023/11/16 02:48:29;;;;;;;10.10;2.07;;;6.10;99.90;;;;;;5032380;28;20175;-80
2023/11/16 02:50:54;;;;;;;8.00;1.80;;;6.10;99.90;;;;;;5030285;28;20761;-79
2023/11/16 02:53:20;;;;;;;14.13;1.97;;;6.10;99.90;;;;;;5048822;28;20706;-78
2023/11/16 02:55:45;;;;;;;13.10;2.30;;;6.00;99.90;;;;;;5040147;28;20685;-78
2023/11/16 02:58:11;;;;;;;10.43;2.00;;;6.00;99.90;;;;;;5033814;28;20187;-79
2023/11/16 03:00:36;;;;;;;8.50;1.93;;;5.90;99.90;;;;;;5045599;28;20298;-78
2023/11/16 03:03:02;;;;;;;11.43;2.13;;;5.90;99.90;;;;;;5040149;28;20191;-81
2023/11/16 03:05:28;;;;;;;11.87;2.47;;;5.90;99.90;;;;;;5025632;28;20183;-78
2023/11/16 03:07:53;;;;;;;6.20;1.60;;;6.00;99.90;;;;;;5035945;28;20326;-80
2023/11/16 03:10:20;;;;;;;15.03;2.20;;;6.10;99.90;;;;;;5031295;28;20203;-80
2023/11/16 03:12:45;;;;;;;15.63;2.43;;;6.10;99.90;;;;;;5045434;28;20179;-80
2023/11/16 03:15:13;;;;;;;7.60;1.60;;;6.10;99.90;;;;;;5051142;28;20665;-78
2023/11/16 03:17:40;;;;;;;7.47;1.57;;;6.20;99.90;;;;;;5038057;28;20179;-79
2023/11/16 03:20:09;;;;;;;9.97;2.97;;;6.20;99.90;;;;;;5031989;28;20191;-80
2023/11/16 03:22:35;;;;;;;9.00;1.97;;;6.20;99.90;;;;;;5031888;28;20199;-78
2023/11/16 03:25:03;;;;;;;11.37;2.13;;;6.10;99.90;;;;;;5039686;28;20551;-78
2023/11/16 03:27:28;;;;;;;11.93;2.40;;;6.00;99.90;;;;;;5043900;28;20179;-77
2023/11/16 03:29:54;;;;;;;18.27;2.00;;;6.00;99.90;;;;;;5043872;28;20191;-79
2023/11/16 03:32:19;;;;;;;26.37;3.33;;;6.00;99.90;;;;;;5050783;28;20740;-79
2023/11/16 03:34:45;;;;;;;12.27;2.53;;;5.90;99.90;;;;;;5017675;28;20190;-79
2023/11/16 03:37:11;;;;;;;6.70;2.10;;;6.00;99.90;;;;;;5050601;28;20216;-80
2023/11/16 03:39:37;;;;;;;10.13;2.00;;;6.00;99.90;;;;;;5044987;28;20188;-79
2023/11/16 03:42:03;;;;;;;7.63;1.70;;;6.10;99.90;;;;;;5046730;28;20203;-79
2023/11/16 03:44:29;;;;;;;10.30;2.20;;;6.10;99.90;;;;;;5041612;28;20654;-78
2023/11/16 03:46:57;;;;;;;10.87;2.27;;;6.10;99.90;;;;;;5043502;28;20195;-80
2023/11/16 03:49:23;;;;;;;9.43;1.83;;;5.90;99.90;;;;;;5046588;28;20188;-78
2023/11/16 03:51:49;;;;;;;7.07;1.70;;;5.80;99.90;;;;;;5035368;28;20222;-78
2023/11/16 03:54:17;;;;;;;7.23;1.93;;;5.90;99.90;;;;;;5034557;28;20270;-78
2023/11/16 03:56:49;;;;;;;7.97;1.80;;;5.90;99.90;;;;;;5044005;28;20183;-77
2023/11/16 03:59:18;;;;;;;6.87;1.80;;;5.90;99.90;;;;;;5017674;28;20183;-79
2023/11/16 04:01:44;;;;;;;4.70;1.87;;;6.00;99.90;;;;;;5035642;28;20211;-78
2023/11/16 04:04:12;;;;;;;13.20;1.90;;;6.00;99.90;;;;;;5034491;28;20244;-78
2023/11/16 04:06:38;;;;;;;9.57;2.40;;;6.00;99.90;;;;;;5035378;28;20182;-80
2023/11/16 04:09:07;;;;;;;12.37;1.73;;;6.00;99.90;;;;;;5035191;28;20191;-79
2023/11/16 04:11:42;;;;;;;3.73;1.50;;;6.00;99.90;;;;;;5035075;28;20219;-79
2023/11/16 04:14:09;;;;;;;12.50;1.80;;;6.00;99.90;;;;;;5016375;28;20233;-78
2023/11/16 04:16:35;;;;;;;8.80;1.77;;;6.00;99.90;;;;;;5035281;28;20172;-81
2023/11/16 04:19:02;;;;;;;13.30;2.13;;;6.00;99.90;;;;;;5034975;28;20218;-77
2023/11/16 04:21:29;;;;;;;4.93;1.53;;;5.90;99.90;;;;;;5035140;28;20195;-78
2023/11/16 04:23:57;;;;;;;10.03;2.23;;;5.80;99.90;;;;;;5034712;28;20195;-77
2023/11/16 04:26:28;;;;;;;8.70;2.07;;;5.90;99.90;;;;;;5042441;28;20184;-80
2023/11/16 04:28:56;;;;;;;11.73;2.17;;;5.90;99.90;;;;;;5034939;28;20182;-80
2023/11/16 04:31:21;;;;;;;9.00;2.00;;;5.90;99.90;;;;;;5034582;28;20575;-78
2023/11/16 04:33:47;;;;;;;6.13;2.60;;;5.90;99.90;;;;;;5034299;28;20191;-79
2023/11/16 04:36:17;;;;;;;8.20;2.50;;;5.90;99.90;;;;;;5034575;28;20290;-79
2023/11/16 04:38:43;;;;;;;10.47;2.20;;;5.90;99.90;;;;;;5034624;28;20207;-77
2023/11/16 04:41:09;;;;;;;13.87;2.67;;;5.90;99.90;;;;;;5049846;28;20293;-79
2023/11/16 04:43:36;;;;;;;8.67;3.20;;;5.90;99.90;;;;;;5046309;28;20179;-80
2023/11/16 04:46:04;;;;;;;15.47;3.90;;;5.90;99.90;;;;;;5052493;28;20194;-80
2023/11/16 04:48:30;;;;;;;10.80;3.33;;;6.00;99.90;;;;;;5034437;28;20281;-78
2023/11/16 04:50:56;;;;;;;11.20;3.20;;;6.00;99.90;;;;;;5048563;28;20690;-78
2023/11/16 04:53:21;;;;;;;12.50;4.17;;;6.00;99.90;;;;;;5034424;28;20186;-80
2023/11/16 04:55:47;;;;;;;9.33;2.80;;;6.00;99.90;;;;;;5033554;28;20670;-78
2023/11/16 04:58:12;;;;;;;13.20;2.80;;;6.00;99.90;;;;;;5034071;28;20568;-78
2023/11/16 05:00:38;;;;;;;15.10;3.63;;;6.00;99.90;;;;;;5046185;28;20225;-78
2023/11/16 05:03:03;;;;;;;23.43;5.23;;;6.00;99.90;;;;;;5068992;28;20195;-78
2023/11/16 05:05:29;;;;;;;9.67;3.60;;;5.80;99.90;;;;;;5041272;28;20191;-77
2023/11/16 05:07:55;;;;;;;44.93;15.07;;;5.80;99.90;;;;;;5033699;28;20287;-77
2023/11/16 05:10:20;;;;;;;24.87;6.40;;;5.80;99.90;;;;;;5015649;28;20227;-78
2023/11/16 05:12:48;;;;;;;16.53;4.90;;;5.70;99.90;;;;;;5033784;28;20727;-79
2023/11/16 05:15:15;;;;;;;16.03;4.27;;;5.60;99.90;;;;;;5047910;28;20202;-78
2023/11/16 05:17:41;;;;;;;12.50;4.00;;;5.70;99.90;;;;;;5046533;28;20175;-78
2023/11/16 05:20:08;;;;;;;14.33;3.83;;;5.70;99.90;;;;;;5067980;28;20213;-79
2023/11/16 05:22:33;;;;;;;15.03;4.00;;;5.70;99.90;;;;;;5015947;28;20249;-78
2023/11/16 05:24:59;;;;;;;15.80;4.00;;;5.70;99.90;;;;;;5033116;28;20270;-77
2023/11/16 05:27:27;;;;;;;15.10;4.57;;;5.70;99.90;;;;;;5048881;28;20183;-78
2023/11/16 05:29:52;;;;;;;21.87;4.57;;;5.80;99.90;;;;;;5033569;28;20183;-78
2023/11/16 05:32:18;;;;;;;11.63;4.67;;;5.80;99.90;;;;;;5040294;28;20220;-80
2023/11/16 05:34:44;;;;;;;13.70;3.77;;;5.90;99.90;;;;;;5032896;28;20184;-80
2023/11/16 05:37:12;;;;;;;30.23;4.67;;;5.90;99.90;;;;;;5033711;28;20211;-79
2023/11/16 05:39:38;;;;;;;19.73;4.90;;;5.90;99.90;;;;;;5045651;28;20175;-79
2023/11/16 05:42:06;;;;;;;12.90;3.90;;;5.90;99.90;;;;;;5018886;28;20215;-77
2023/11/16 05:44:32;;;;;;;14.13;4.00;;;6.00;99.90;;;;;;5043753;28;20183;-78
2023/11/16 05:46:59;;;;;;;9.53;3.27;;;6.00;99.90;;;;;;5037103;28;20188;-79
2023/11/16 05:49:26;;;;;;;18.73;3.90;;;6.00;99.90;;;;;;5036764;28;20551;-81
2023/11/16 05:51:53;;;;;;;15.67;4.10;;;6.00;99.90;;;;;;5051849;28;20217;-79
2023/11/16 05:54:19;;;;;;;11.40;3.90;;;6.00;99.90;;;;;;5040512;28;20658;-78
2023/11/16 05:56:48;;;;;;;10.53;3.43;;;6.00;99.90;;;;;;5039810;28;20171;-79
2023/11/16 05:59:17;;;;;;;17.63;5.30;;;6.00;99.90;;;;;;5034861;28;20176;-78
2023/11/16 06:01:46;;;;;;;13.70;4.47;;;6.10;99.90;;;;;;5045915;28;20203;-78
2023/11/16 06:04:11;;;;;;;13.50;3.97;;;6.10;99.90;;;;;;5016926;28;20571;-78
2023/11/16 06:06:38;;;;;;;16.77;4.47;;;6.10;99.90;;;;;;5033492;28;20241;-78
2023/11/16 06:09:05;;;;;;;11.93;3.57;;;6.10;99.90;;;;;;5016281;28;20184;-78
2023/11/16 06:11:31;;;;;;;21.27;4.40;;;6.10;99.90;;;;;;5041876;28;20215;-79
2023/11/16 06:13:56;;;;;;;13.30;4.00;;;6.10;99.90;;;;;;5015602;28;20717;-79
2023/11/16 06:16:25;;;;;;;15.23;5.43;;;6.10;99.90;;;;;;5033419;28;20180;-78
2023/11/16 06:18:53;;;;;;;16.37;5.27;;;6.10;99.90;;;;;;5033215;28;20180;-78
2023/11/16 06:21:19;;;;;;;17.40;5.60;;;6.10;99.90;;;;;;5032687;28;20192;-80
2023/11/16 06:23:45;;;;;;;11.03;4.33;;;6.20;99.90;;;;;;5032967;28;20247;-80
2023/11/16 06:26:11;;;;;;;14.93;5.60;;;6.20;99.90;;;;;;5038391;28;20267;-80
2023/11/16 06:28:37;;;;;;;17.73;5.37;;;6.20;99.90;;;;;;5033305;28;20183;-80
2023/11/16 06:31:04;;;;;;;28.30;5.20;;;6.20;99.90;;;;;;5015435;28;20605;-79
2023/11/16 06:33:30;;;;;;;12.73;4.90;;;6.10;99.90;;;;;;5027860;28;20175;-77
2023/11/16 06:35:56;;;;;;;13.93;4.63;;;6.20;99.90;;;;;;5026582;28;20187;-78
2023/11/16 06:38:21;;;;;;;30.50;8.67;;;6.20;99.90;;;;;;5065414;28;20187;-80
2023/11/16 06:40:48;;;;;;;23.33;7.47;;;6.20;99.90;;;;;;5032970;28;20253;-78
2023/11/16 06:43:14;;;;;;;23.00;7.93;;;6.30;99.90;;;;;;5032746;28;20183;-79
2023/11/16 06:45:40;;;;;;;14.43;5.67;;;6.30;99.90;;;;;;5032383;28;20186;-79
2023/11/16 06:48:07;;;;;;;16.03;4.70;;;6.30;99.90;;;;;;5032259;28;20212;-78
2023/11/16 06:50:34;;;;;;;23.37;5.70;;;6.30;99.90;;;;;;5032014;28;20223;-78
2023/11/16 06:53:05;;;;;;;18.20;5.77;;;6.20;99.90;;;;;;5022064;28;20270;-78
2023/11/16 06:55:34;;;;;;;13.27;4.73;;;6.20;99.90;;;;;;5038972;28;20259;-78
2023/11/16 06:58:01;;;;;;;31.40;8.70;;;6.20;99.90;;;;;;5032436;28;20180;-79
2023/11/16 07:00:27;;;;;;;26.10;9.17;;;6.20;99.90;;;;;;5031795;28;20271;-79
2023/11/16 07:02:53;;;;;;;18.87;6.83;;;6.30;99.90;;;;;;5031934;28;20211;-78
2023/11/16 07:05:19;;;;;;;14.60;5.57;;;6.30;99.90;;;;;;5039067;28;20184;-79
2023/11/16 07:07:45;;;;;;;22.67;7.40;;;6.40;99.90;;;;;;5015527;28;20199;-79
2023/11/16 07:10:11;;;;;;;19.83;6.93;;;6.30;99.90;;;;;;5030033;28;20183;-78
2023/11/16 07:12:41;;;;;;;16.13;5.40;;;6.40;99.90;;;;;;5034802;28;20194;-79
2023/11/16 07:15:08;;;;;;;21.87;4.87;;;6.50;99.90;;;;;;5033815;28;20187;-78
2023/11/16 07:17:33;;;;;;;22.33;5.33;;;6.40;99.90;;;;;;5020844;28;20690;-78
2023/11/16 07:19:59;;;;;;;19.33;5.07;;;6.50;99.90;;;;;;5022452;28;20273;-77
2023/11/16 07:22:27;;;;;;;22.43;6.63;;;6.50;99.90;;;;;;5030669;28;20196;-79
2023/11/16 07:24:53;;;;;;;16.40;5.27;;;6.50;99.90;;;;;;5045681;28;20171;-79
2023/11/16 07:27:19;;;;;;;23.90;8.50;;;6.50;99.90;;;;;;5042705;28;20626;-78
2023/11/16 07:29:44;;;;;;;22.33;5.77;;;6.60;99.90;;;;;;5027250;28;20187;-80
2023/11/16 07:32:11;;;;;;;12.90;5.20;;;6.60;99.90;;;;;;5037334;28;20219;-78
2023/11/16 07:34:41;;;;;;;14.13;5.10;;;6.60;99.90;;;;;;5038217;28;20191;-80
2023/11/16 07:37:07;;;;;;;14.03;5.17;;;6.60;99.90;;;;;;5038792;28;20199;-79
2023/11/16 07:39:33;;;;;;;16.17;4.57;;;6.70;99.90;;;;;;5043265;28;20175;-79
2023/11/16 07:41:59;;;;;;;13.77;4.37;;;6.70;99.90;;;;;;5024975;28;20200;-80
2023/11/16 07:44:25;;;;;;;15.20;4.07;;;6.70;99.90;;;;;;5023468;28;20287;-79
2023/11/16 07:46:51;;;;;;;14.17;4.60;;;6.70;99.90;;;;;;5042535;28;20186;-79
2023/11/16 07:49:17;;;;;;;13.73;4.80;;;6.80;99.90;;;;;;5032013;28;20209;-78
2023/11/16 07:51:43;;;;;;;17.60;4.63;;;6.80;99.90;;;;;;5037173;28;20211;-78
2023/11/16 07:54:11;;;;;;;16.33;5.00;;;6.80;99.90;;;;;;5046766;28;20515;-80
2023/11/16 07:56:45;;;;;;;13.03;4.40;;;6.80;99.90;;;;;;5043735;28;20171;-80
2023/11/16 07:59:14;;;;;;;10.73;4.13;;;6.80;99.90;;;;;;5050586;28;20570;-79
2023/11/16 08:01:50;;;;;;;14.90;4.97;;;6.80;99.90;;;;;;5045469;28;20567;-79
2023/11/16 08:04:18;;;;;;;21.07;5.00;;;6.80;99.90;;;;;;5028300;28;20187;-78
2023/11/16 08:06:44;;;;;;;19.43;6.80;;;6.80;99.90;;;;;;5045059;28;20556;-78
2023/11/16 08:09:09;;;;;;;19.40;7.90;;;6.90;99.90;;;;;;5032076;28;20192;-79
2023/11/16 08:11:36;;;;;;;27.43;10.53;;;6.90;99.90;;;;;;5026621;28;20218;-79
2023/11/16 08:14:06;;;;;;;15.33;6.27;;;7.00;99.90;;;;;;5043106;28;20183;-80
2023/11/16 08:16:34;;;;;;;16.60;6.27;;;7.00;99.90;;;;;;5043474;28;20171;-78
2023/11/16 08:19:04;;;;;;;19.03;7.17;;;7.00;99.90;;;;;;5034462;28;20175;-79
2023/11/16 08:21:29;;;;;;;13.17;6.23;;;7.10;99.90;;;;;;5034461;28;20293;-79
2023/11/16 08:23:56;;;;;;;24.13;5.57;;;7.20;99.90;;;;;;5043014;28;20263;-81
2023/11/16 08:26:21;;;;;;;16.90;8.90;;;7.20;99.90;;;;;;5042099;28;20180;-79
2023/11/16 08:28:49;;;;;;;21.67;7.60;;;7.20;99.90;;;;;;5051182;28;20186;-79
2023/11/16 08:31:16;;;;;;;15.57;5.87;;;7.30;99.90;;;;;;5042321;28;20211;-78
2023/11/16 08:33:43;;;;;;;21.73;5.63;;;7.30;99.90;;;;;;5050920;28;20214;-79
2023/11/16 08:36:10;;;;;;;17.03;6.80;;;7.40;99.90;;;;;;5042287;28;20560;-79
2023/11/16 08:38:41;;;;;;;15.50;6.87;;;7.40;99.90;;;;;;5047533;28;20262;-78
2023/11/16 08:41:06;;;;;;;17.63;5.90;;;7.40;99.90;;;;;;5046365;28;20207;-79
2023/11/16 08:43:33;;;;;;;20.47;6.57;;;7.40;99.90;;;;;;5036432;28;20183;-79
2023/11/16 08:46:02;;;;;;;14.07;5.30;;;7.40;99.90;;;;;;5038259;28;20179;-79
2023/11/16 08:48:32;;;;;;;16.17;5.27;;;7.40;99.90;;;;;;5054085;28;20186;-79
2023/11/16 08:51:05;;;;;;;14.73;5.67;;;7.40;99.90;;;;;;5045912;28;20203;-79
2023/11/16 08:53:33;;;;;;;17.60;6.90;;;7.40;99.90;;;;;;5054053;28;20183;-80
2023/11/16 08:56:03;;;;;;;29.40;8.03;;;7.40;99.90;;;;;;5045400;28;20712;-79
2023/11/16 08:58:33;;;;;;;21.13;8.90;;;7.40;99.90;;;;;;5045315;28;20175;-77
2023/11/16 09:01:02;;;;;;;24.17;9.10;;;7.40;99.90;;;;;;5027223;28;20224;-79
2023/11/16 09:03:28;;;;;;;19.97;7.80;;;7.50;99.90;;;;;;5045217;28;20244;-78
2023/11/16 09:05:54;;;;;;;19.77;7.63;;;7.60;99.90;;;;;;5020870;28;20191;-78
2023/11/16 09:08:23;;;;;;;17.80;6.90;;;7.60;99.90;;;;;;5043437;28;20683;-78
2023/11/16 09:10:49;;;;;;;16.87;7.23;;;7.70;99.90;;;;;;5045927;28;20206;-78
2023/11/16 09:13:15;;;;;;;16.30;7.47;;;7.70;99.90;;;;;;5046332;28;20187;-79
2023/11/16 09:15:42;;;;;;;19.83;7.30;;;7.70;99.90;;;;;;5045645;28;20183;-79
2023/11/16 09:18:09;;;;;;;14.13;4.23;;;7.70;99.90;;;;;;5027761;28;20179;-78
2023/11/16 09:20:35;;;;;;;11.93;3.60;;;7.80;99.90;;;;;;5047334;28;20233;-78
2023/11/16 09:23:03;;;;;;;10.67;4.20;;;7.90;99.90;;;;;;5051172;28;20218;-77
2023/11/16 09:25:30;;;;;;;15.90;6.70;;;8.00;99.90;;;;;;5047505;28;20195;-78
2023/11/16 09:28:01;;;;;;;19.00;5.00;;;8.00;99.90;;;;;;5049536;28;20182;-78
2023/11/16 09:30:27;;;;;;;15.97;4.43;;;8.10;99.90;;;;;;5049010;28;20562;-78
2023/11/16 09:32:54;;;;;;;21.00;5.33;;;8.10;99.90;;;;;;5050547;28;20186;-78
2023/11/16 09:35:24;;;;;;;18.53;7.30;;;8.10;99.90;;;;;;5044467;28;20222;-77
2023/11/16 09:37:52;;;;;;;13.97;5.73;;;8.10;99.90;;;;;;5047173;28;20183;-79
2023/11/16 09:40:21;;;;;;;11.70;5.23;;;8.10;99.90;;;;;;5046396;28;20183;-77
2023/11/16 09:42:56;;;;;;;18.97;4.83;;;8.10;99.90;;;;;;5045361;28;20646;-79
2023/11/16 09:45:27;;;;;;;12.30;5.47;;;8.20;99.90;;;;;;5042203;28;20255;-80
2023/11/16 09:48:00;;;;;;;18.83;5.60;;;8.20;99.90;;;;;;5041255;28;20259;-79
2023/11/16 09:50:26;;;;;;;13.00;4.33;;;8.20;99.90;;;;;;5041200;28;20203;-78
2023/11/16 09:52:58;;;;;;;15.50;5.00;;;8.30;99.90;;;;;;5047934;28;20183;-79
2023/11/16 09:55:30;;;;;;;13.67;4.47;;;8.40;99.90;;;;;;5044794;28;20231;-79
2023/11/16 09:57:59;;;;;;;12.60;4.50;;;8.40;99.90;;;;;;5040379;28;20194;-79
2023/11/16 10:00:24;;;;;;;10.90;4.70;;;8.50;99.90;;;;;;5031970;28;20195;-79
2023/11/16 10:02:55;;;;;;;16.20;4.77;;;8.50;99.90;;;;;;5041786;28;20667;-79
2023/11/16 10:05:40;;;;;;;20.07;5.47;;;8.60;99.90;;;;;;5034989;28;20514;-79
2023/11/16 10:08:14;;;;;;;14.67;4.50;;;8.70;99.90;;;;;;5044717;28;20195;-81
2023/11/16 10:10:56;;;;;;;15.17;4.07;;;8.80;99.90;;;;;;5067044;28;20222;-77
2023/11/16 10:13:27;;;;;;;24.53;7.90;;;8.70;99.90;;;;;;5044999;28;20178;-77
2023/11/16 10:15:54;;;;;;;8.30;3.40;;;8.70;99.90;;;;;;5045290;28;20184;-77
2023/11/16 10:18:24;;;;;;;13.33;3.83;;;8.70;99.90;;;;;;5041209;28;20188;-77
2023/11/16 10:20:50;;;;;;;12.63;4.43;;;8.70;99.90;;;;;;5045132;28;20202;-78
2023/11/16 10:23:17;;;;;;;16.17;4.37;;;8.70;99.90;;;;;;5039542;28;20603;-77
2023/11/16 10:25:44;;;;;;;10.47;2.77;;;8.70;99.90;;;;;;5035243;28;20174;-77
2023/11/16 10:28:14;;;;;;;12.03;2.60;;;8.70;99.90;;;;;;5045920;28;20180;-77
2023/11/16 10:30:43;;;;;;;9.07;2.60;;;8.60;99.90;;;;;;5043630;28;20203;-77
2023/11/16 10:33:10;;;;;;;13.10;3.40;;;8.60;99.90;;;;;;5034269;28;20184;-77
2023/11/16 10:35:39;;;;;;;11.70;3.53;;;8.70;99.90;;;;;;5055076;28;20179;-79
2023/11/16 10:38:07;;;;;;;11.93;4.27;;;8.70;99.90;;;;;;5039318;28;20183;-80
2023/11/16 10:40:34;;;;;;;18.83;5.80;;;8.70;99.90;;;;;;5045798;28;20730;-80
2023/11/16 10:43:01;;;;;;;16.07;3.50;;;8.80;99.90;;;;;;5044058;28;20249;-82
2023/11/16 10:45:27;;;;;;;17.00;3.20;;;8.80;99.90;;;;;;5031299;28;20176;-79
2023/11/16 10:47:53;;;;;;;12.83;3.30;;;8.80;99.90;;;;;;5050696;28;20186;-78
2023/11/16 10:50:19;;;;;;;11.93;3.27;;;8.80;99.90;;;;;;5030481;28;20183;-77
2023/11/16 10:52:47;;;;;;;12.70;3.13;;;8.90;99.90;;;;;;5041581;28;20189;-77
2023/11/16 10:55:16;;;;;;;9.37;2.80;;;8.90;99.90;;;;;;5048425;28;20185;-78
2023/11/16 10:57:44;;;;;;;10.20;3.23;;;8.90;99.90;;;;;;5047179;28;20203;-78
2023/11/16 11:00:16;;;;;;;11.30;3.87;;;9.00;99.90;;;;;;5039527;28;20176;-78
2023/11/16 11:02:44;;;;;;;8.27;3.33;;;8.90;99.90;;;;;;5050709;28;20525;-78
2023/11/16 11:05:11;;;;;;;11.53;2.97;;;8.90;99.90;;;;;;5041052;28;20184;-78
2023/11/16 11:07:49;;;;;;;8.77;2.93;;;8.90;99.90;;;;;;5046927;28;20195;-78
2023/11/16 11:10:15;;;;;;;9.10;3.10;;;8.90;99.90;;;;;;5038898;28;20183;-78
2023/11/16 11:12:47;;;;;;;13.87;4.70;;;8.90;99.90;;;;;;5048848;28;20180;-79
2023/11/16 11:15:29;;;;;;;13.30;4.73;;;8.90;99.90;;;;;;5043471;28;20187;-79
2023/11/16 11:17:56;;;;;;;12.83;4.13;;;9.00;99.90;;;;;;5023431;28;20179;-78
2023/11/16 11:20:32;;;;;;;10.27;3.70;;;8.90;99.90;;;;;;5032772;28;20187;-80
2023/11/16 11:23:18;;;;;;;11.43;2.97;;;8.90;99.90;;;;;;5040355;28;20274;-78
2023/11/16 11:25:44;;;;;;;10.20;2.73;;;8.90;99.90;;;;;;5053114;28;20470;-78
2023/11/16 11:28:11;;;;;;;12.10;3.37;;;8.80;99.90;;;;;;5031533;28;20180;-78
2023/11/16 11:30:54;;;;;;;10.17;2.90;;;8.80;99.90;;;;;;5045048;28;20211;-77
2023/11/16 11:33:27;;;;;;;15.73;5.30;;;8.80;99.90;;;;;;5013350;28;20180;-77
2023/11/16 11:35:53;;;;;;;16.30;5.00;;;8.80;99.90;;;;;;5038716;28;20206;-77
2023/11/16 11:38:26;;;;;;;15.13;2.90;;;8.80;99.90;;;;;;5031682;28;20658;-77
2023/11/16 11:40:56;;;;;;;15.90;4.37;;;8.80;99.90;;;;;;5043433;28;20260;-77
2023/11/16 11:43:26;;;;;;;7.23;3.23;;;8.70;99.90;;;;;;5042697;28;20210;-74
2023/11/16 11:45:53;;;;;;;17.60;3.27;;;8.70;99.90;;;;;;5039573;28;20651;-73
2023/11/16 11:48:22;;;;;;;10.97;3.00;;;8.80;99.90;;;;;;5012379;28;20697;-80
2023/11/16 11:50:53;;;;;;;9.90;2.80;;;8.70;99.90;;;;;;5038722;28;20694;-79
2023/11/16 11:53:22;;;;;;;9.20;2.90;;;8.70;99.90;;;;;;5041530;28;20606;-77
2023/11/16 11:55:47;;;;;;;8.97;2.90;;;8.60;99.90;;;;;;5044701;28;20726;-77
2023/11/16 11:58:13;;;;;;;13.13;4.03;;;8.60;99.90;;;;;;5030629;28;20245;-76
2023/11/16 12:00:49;;;;;;;15.17;3.40;;;8.50;99.90;;;;;;5045182;28;20199;-77
2023/11/16 12:03:17;;;;;;;13.13;3.10;;;8.50;99.90;;;;;;5039569;28;20222;-80
2023/11/16 12:05:43;;;;;;;15.50;3.30;;;8.50;99.90;;;;;;5041500;28;20211;-82
2023/11/16 12:54:45;;;;;;;9.93;3.97;;;8.10;99.90;;;;;;5975078;23;21069;-76
2023/11/16 12:57:10;;;;;;;9.57;3.13;;;8.00;99.90;;;;;;4987813;28;20310;-76
2023/11/16 12:59:36;;;;;;;15.07;4.27;;;8.00;99.90;;;;;;4973152;28;20170;-75
2023/11/16 13:02:02;;;;;;;10.00;3.30;;;8.00;99.90;;;;;;4972078;28;20178;-75
2023/11/16 13:04:28;;;;;;;8.97;3.17;;;8.00;99.90;;;;;;4972262;28;20184;-75
2023/11/16 13:06:56;;;;;;;8.47;3.30;;;8.00;99.90;;;;;;4967854;28;20190;-75
2023/11/16 13:09:24;;;;;;;15.27;4.87;;;7.90;99.90;;;;;;4973661;28;20185;-75
2023/11/16 13:11:50;;;;;;;14.07;4.43;;;8.00;99.90;;;;;;4970153;28;20209;-75
2023/11/16 13:14:15;;;;;;;17.40;4.77;;;8.00;99.90;;;;;;4972541;28;20583;-75
2023/11/16 13:16:41;;;;;;;13.43;4.90;;;7.90;99.90;;;;;;4973371;28;20680;-74
2023/11/16 13:19:07;;;;;;;12.77;4.00;;;7.90;99.90;;;;;;4968940;28;20299;-75
2023/11/16 13:21:33;;;;;;;11.97;3.30;;;7.90;99.90;;;;;;4968932;28;20192;-75
2023/11/16 13:23:58;;;;;;;12.60;3.70;;;7.90;99.90;;;;;;4969135;28;20189;-75
2023/11/16 13:26:25;;;;;;;17.73;4.53;;;7.90;99.90;;;;;;4970299;28;20210;-75
2023/11/16 13:28:52;;;;;;;13.43;4.07;;;7.90;99.90;;;;;;4973263;28;20596;-75
2023/11/16 13:31:19;;;;;;;16.83;5.97;;;7.90;99.90;;;;;;4977795;28;20295;-78
2023/11/16 13:33:46;;;;;;;10.03;4.93;;;7.90;99.90;;;;;;4976814;28;20174;-77
2023/11/16 13:36:12;;;;;;;13.53;4.60;;;7.90;99.90;;;;;;4973236;28;20209;-75